Sim-Planet VA

Sim-Planet Nouvel Horizon. By: Anthony Pay
Since 2020.




 METAR ET TAF INFORMATION
METAR FOR CYPR
ADDS - METARS form results

(1154 UTC 24 July 2021)
Data provider http://aviationweather.gov/metar/data/
 
METAR text: CYPR 241152Z AUTO 09003KT 6SM -RA BR OVC038 12/12 A3014 RMK SLP208
Conditions at: CYPR (PRINCE RUPERT AR, BC, CA) observed 1152 UTC 24 July 2021
Temperature: 12.0°C (54°F)
Dewpoint: 12.0°C (54°F) [RH = 100%]
Pressure (altimeter): 30.14 inches Hg (1020.7 mb)
[Sea-level pressure: 1020.8 mb]
Winds: from the E (90 degrees) at 3 MPH (3 knots; 1.5 m/s)
Visibility: 6 miles (10 km)
Ceiling: 3800 feet AGL
Clouds: overcast cloud deck at 3800 feet AGL
Weather: -RA BR  (light rain, mist)

METAR text: CYPR 241141Z AUTO 10002KT 5SM -RA BR FEW004 OVC036 12/12 A3014 RMK SLP207
Conditions at: CYPR (PRINCE RUPERT AR, BC, CA) observed 1141 UTC 24 July 2021
Temperature: 12.0°C (54°F)
Dewpoint: 12.0°C (54°F) [RH = 100%]
Pressure (altimeter): 30.14 inches Hg (1020.7 mb)
[Sea-level pressure: 1020.7 mb]
Winds: from the E (100 degrees) at 2 MPH (2 knots; 1.0 m/s)
Visibility: 5 miles ( 8 km)
Ceiling: 3600 feet AGL
Clouds: few clouds at 400 feet AGL
overcast cloud deck at 3600 feet AGL
Weather: -RA BR  (light rain, mist)

METAR text: CYPR 241125Z AUTO 10002KT 7SM -RA SCT004 OVC032 12/12 A3014 RMK SLP207
Conditions at: CYPR (PRINCE RUPERT AR, BC, CA) observed 1125 UTC 24 July 2021
Temperature: 12.0°C (54°F)
Dewpoint: 12.0°C (54°F) [RH = 100%]
Pressure (altimeter): 30.14 inches Hg (1020.7 mb)
[Sea-level pressure: 1020.7 mb]
Winds: from the E (100 degrees) at 2 MPH (2 knots; 1.0 m/s)
Visibility: 7 miles (11 km)
Ceiling: 3200 feet AGL
Clouds: scattered clouds at 400 feet AGL
overcast cloud deck at 3200 feet AGL
Weather: -RA  (light rain)

METAR text: CYPR 241124Z AUTO 11002KT 5SM -RA BR SCT004 SCT022 OVC032 12/12 A3014 RMK SLP207
Conditions at: CYPR (PRINCE RUPERT AR, BC, CA) observed 1124 UTC 24 July 2021
Temperature: 12.0°C (54°F)
Dewpoint: 12.0°C (54°F) [RH = 100%]
Pressure (altimeter): 30.14 inches Hg (1020.7 mb)
[Sea-level pressure: 1020.7 mb]
Winds: from the ESE (110 degrees) at 2 MPH (2 knots; 1.0 m/s)
Visibility: 5 miles ( 8 km)
Ceiling: 3200 feet AGL
Clouds: scattered clouds at 400 feet AGL
scattered clouds at 2200 feet AGL
overcast cloud deck at 3200 feet AGL
Weather: -RA BR  (light rain, mist)

METAR text: CYPR 241121Z AUTO 10002KT 3SM -RA BR BKN004 BKN022 OVC032 12/12 A3014 RMK SLP207
Conditions at: CYPR (PRINCE RUPERT AR, BC, CA) observed 1121 UTC 24 July 2021
Temperature: 12.0°C (54°F)
Dewpoint: 12.0°C (54°F) [RH = 100%]
Pressure (altimeter): 30.14 inches Hg (1020.7 mb)
[Sea-level pressure: 1020.7 mb]
Winds: from the E (100 degrees) at 2 MPH (2 knots; 1.0 m/s)
Visibility: 3 miles ( 5 km)
Ceiling: 400 feet AGL
Clouds: broken clouds at 400 feet AGL
broken clouds at 2200 feet AGL
overcast cloud deck at 3200 feet AGL
Weather: -RA BR  (light rain, mist)

METAR text: CYPR 241117Z AUTO 10002KT 2SM -RA BR BKN004 BKN024 OVC032 12/12 A3014 RMK SLP207
Conditions at: CYPR (PRINCE RUPERT AR, BC, CA) observed 1117 UTC 24 July 2021
Temperature: 12.0°C (54°F)
Dewpoint: 12.0°C (54°F) [RH = 100%]
Pressure (altimeter): 30.14 inches Hg (1020.7 mb)
[Sea-level pressure: 1020.7 mb]
Winds: from the E (100 degrees) at 2 MPH (2 knots; 1.0 m/s)
Visibility: 2.00 miles (3.22 km)
Ceiling: 400 feet AGL
Clouds: broken clouds at 400 feet AGL
broken clouds at 2400 feet AGL
overcast cloud deck at 3200 feet AGL
Weather: -RA BR  (light rain, mist)

METAR text: CYPR 241110Z AUTO 00000KT 1 3/4SM -RA BR BKN004 BKN015 OVC021 12/12 A3014 RMK SLP207
Conditions at: CYPR (PRINCE RUPERT AR, BC, CA) observed 1110 UTC 24 July 2021
Temperature: 12.0°C (54°F)
Dewpoint: 12.0°C (54°F) [RH = 100%]
Pressure (altimeter): 30.14 inches Hg (1020.7 mb)
[Sea-level pressure: 1020.7 mb]
Winds: calm
Visibility: 1.75 miles (2.82 km)
Ceiling: 400 feet AGL
Clouds: broken clouds at 400 feet AGL
broken clouds at 1500 feet AGL
overcast cloud deck at 2100 feet AGL
Weather: -RA BR  (light rain, mist)

METAR text: CYPR 241100Z AUTO VRB02KT 1 1/4SM -RA BR FEW004 OVC020 12/11 A3013 RMK SLP206
Conditions at: CYPR (PRINCE RUPERT AR, BC, CA) observed 1100 UTC 24 July 2021
Temperature: 12.0°C (54°F)
Dewpoint: 11.0°C (52°F) [RH = 94%]
Pressure (altimeter): 30.13 inches Hg (1020.4 mb)
[Sea-level pressure: 1020.6 mb]
Winds: variable direction winds at 2 MPH (2 knots; 1.0 m/s)
Visibility: 1.25 miles (2.01 km)
Ceiling: 2000 feet AGL
Clouds: few clouds at 400 feet AGL
overcast cloud deck at 2000 feet AGL
Weather: -RA BR  (light rain, mist)

Forecast for: CYPR (PRINCE RUPERT AR, BC, CA)
Text: TAF CYPR 240638Z 2407/2419 14006KT P6SM -RA SCT005 BKN025
Forecast period: 0700 to 1700 UTC 24 July 2021
Forecast type: FROM: standard forecast or significant change
Winds: from the SE (140 degrees) at 7 MPH (6 knots; 3.1 m/s)
Visibility: 6 or more miles (10+ km)
Ceiling: 2500 feet AGL
Clouds: scattered clouds at 500 feet AGL
broken clouds at 2500 feet AGL
Weather: -RA  (light rain)
Text: TEMPO 2407/2417 2SM -SHRA BR BKN005
Forecast period: 0700 to 1700 UTC 24 July 2021
Forecast type: TEMPORARY: The following changes expected for less than half the time period
Visibility: 2.00 miles (3.22 km)
Ceiling: 500 feet AGL
Clouds: broken clouds at 500 feet AGL
Weather: -SHRA BR  (light rain showers, mist)
Text: FM241700 VRB03KT P6SM SCT012 OVC030
Forecast period: 1700 to 1900 UTC 24 July 2021
Forecast type: FROM: standard forecast or significant change
Winds: variable direction winds at 3 MPH (3 knots; 1.5 m/s)
Visibility: 6 or more miles (10+ km)
Ceiling: 3000 feet AGL
Clouds: scattered clouds at 1200 feet AGL
overcast cloud deck at 3000 feet AGL
Weather: no significant weather forecast for this period
Text: TEMPO 2417/2419 5SM -SHRA BR BKN012 RMK FCST BASED ON AUTO OBS. NXT FCST BY 241300Z
Forecast period: 1700 to 1900 UTC 24 July 2021
Forecast type: TEMPORARY: The following changes expected for less than half the time period
Visibility: 5 miles (8 km)
Ceiling: 1200 feet AGL
Clouds: broken clouds at 1200 feet AGL
Weather: -SHRA BR  (light rain showers, mist)

 AÉROPORT DE AÉROPORT

 INFORMATIONS DE PISTE
Piste 13 Longueur de la piste 6000 ft Largeur de la piste 200 ft
Élévation de la piste 94 ft Seuil de la piste déplacés 0 ft Runway heading 152
Piste 31 Longueur de la piste 6000 ft Largeur de la piste 200 ft
Élévation de la piste 116 ft Seuil de la piste déplacés 0 ft Runway heading 332

 AÉROPORT FRÉQUENCES
Type A/G Nom RUPERT RDO Féquence 122.5 MHZ
Type CNTR Nom VANCOUVER Féquence 128 MHZ
Type RCO Nom TERRACE RD Féquence 122.5 MHZ
Type RDO Nom PACIFIC RD Féquence 126.7 MHZ

 SIDA DE NAVIGATION
Type DME Nom Prince Rupert Féquence 109700 KHZ
Type NDB Nom Prince Rupert Féquence 218 KHZ